sensor_id;sensor_type;location;lat;lon;timestamp;P1;durP1;ratioP1;P2;durP2;ratioP2
72586;SDS011;60621;49.576;11.024;2022-11-20T00:00:38;16.08;;;7.95;;
72586;SDS011;60621;49.576;11.024;2022-11-20T00:01:39;18.13;;;8.02;;
72586;SDS011;60621;49.576;11.024;2022-11-20T00:02:41;17.33;;;8.02;;
72586;SDS011;60621;49.576;11.024;2022-11-20T00:03:43;18.10;;;8.00;;
72586;SDS011;60621;49.576;11.024;2022-11-20T00:04:44;17.20;;;7.57;;
72586;SDS011;60621;49.576;11.024;2022-11-20T00:05:46;17.45;;;7.90;;
72586;SDS011;60621;49.576;11.024;2022-11-20T00:06:48;16.00;;;7.25;;
72586;SDS011;60621;49.576;11.024;2022-11-20T00:07:49;17.65;;;7.88;;
72586;SDS011;60621;49.576;11.024;2022-11-20T00:08:51;16.67;;;7.32;;
72586;SDS011;60621;49.576;11.024;2022-11-20T00:09:56;17.50;;;8.32;;
72586;SDS011;60621;49.576;11.024;2022-11-20T00:11:02;17.58;;;7.90;;
72586;SDS011;60621;49.576;11.024;2022-11-20T00:12:24;18.67;;;7.97;;
72586;SDS011;60621;49.576;11.024;2022-11-20T00:13:25;19.63;;;7.85;;
72586;SDS011;60621;49.576;11.024;2022-11-20T00:14:26;15.18;;;7.32;;
72586;SDS011;60621;49.576;11.024;2022-11-20T00:15:28;16.83;;;7.45;;
72586;SDS011;60621;49.576;11.024;2022-11-20T00:16:30;19.33;;;8.07;;
72586;SDS011;60621;49.576;11.024;2022-11-20T00:17:33;15.50;;;7.50;;
72586;SDS011;60621;49.576;11.024;2022-11-20T00:18:35;17.63;;;8.38;;
72586;SDS011;60621;49.576;11.024;2022-11-20T00:19:37;17.58;;;8.32;;
72586;SDS011;60621;49.576;11.024;2022-11-20T00:20:39;18.42;;;7.60;;
72586;SDS011;60621;49.576;11.024;2022-11-20T00:21:40;18.98;;;8.07;;
72586;SDS011;60621;49.576;11.024;2022-11-20T00:22:42;17.92;;;7.95;;
72586;SDS011;60621;49.576;11.024;2022-11-20T00:23:44;18.63;;;7.93;;
72586;SDS011;60621;49.576;11.024;2022-11-20T00:24:46;16.70;;;7.28;;
72586;SDS011;60621;49.576;11.024;2022-11-20T00:25:47;16.45;;;7.28;;
72586;SDS011;60621;49.576;11.024;2022-11-20T00:26:49;16.85;;;7.22;;
72586;SDS011;60621;49.576;11.024;2022-11-20T00:27:51;17.55;;;7.65;;
72586;SDS011;60621;49.576;11.024;2022-11-20T00:28:56;18.45;;;7.88;;
72586;SDS011;60621;49.576;11.024;2022-11-20T00:29:59;15.45;;;7.35;;
72586;SDS011;60621;49.576;11.024;2022-11-20T00:31:04;16.92;;;7.43;;
72586;SDS011;60621;49.576;11.024;2022-11-20T00:32:14;15.98;;;7.30;;
72586;SDS011;60621;49.576;11.024;2022-11-20T00:33:15;16.65;;;7.45;;
72586;SDS011;60621;49.576;11.024;2022-11-20T00:34:17;18.83;;;7.60;;
72586;SDS011;60621;49.576;11.024;2022-11-20T00:35:18;16.52;;;7.55;;
72586;SDS011;60621;49.576;11.024;2022-11-20T00:36:21;17.38;;;7.60;;
72586;SDS011;60621;49.576;11.024;2022-11-20T00:37:24;18.92;;;7.88;;
72586;SDS011;60621;49.576;11.024;2022-11-20T00:38:25;17.13;;;7.25;;
72586;SDS011;60621;49.576;11.024;2022-11-20T00:39:27;16.88;;;7.72;;
72586;SDS011;60621;49.576;11.024;2022-11-20T00:40:29;18.10;;;8.35;;
72586;SDS011;60621;49.576;11.024;2022-11-20T00:41:30;17.40;;;8.27;;
72586;SDS011;60621;49.576;11.024;2022-11-20T00:42:32;19.55;;;8.38;;
72586;SDS011;60621;49.576;11.024;2022-11-20T00:43:34;17.60;;;7.80;;
72586;SDS011;60621;49.576;11.024;2022-11-20T00:44:35;18.25;;;7.63;;
72586;SDS011;60621;49.576;11.024;2022-11-20T00:45:37;17.40;;;7.97;;
72586;SDS011;60621;49.576;11.024;2022-11-20T00:46:38;15.07;;;7.10;;
72586;SDS011;60621;49.576;11.024;2022-11-20T00:47:40;17.90;;;7.50;;
72586;SDS011;60621;49.576;11.024;2022-11-20T00:48:41;16.02;;;6.63;;
72586;SDS011;60621;49.576;11.024;2022-11-20T00:49:43;17.80;;;7.43;;
72586;SDS011;60621;49.576;11.024;2022-11-20T00:50:45;18.92;;;7.85;;
72586;SDS011;60621;49.576;11.024;2022-11-20T00:51:46;16.25;;;7.15;;
72586;SDS011;60621;49.576;11.024;2022-11-20T00:52:48;16.88;;;7.72;;
72586;SDS011;60621;49.576;11.024;2022-11-20T00:53:50;16.83;;;7.82;;
72586;SDS011;60621;49.576;11.024;2022-11-20T00:54:51;16.88;;;6.90;;
72586;SDS011;60621;49.576;11.024;2022-11-20T00:55:53;14.63;;;7.13;;
72586;SDS011;60621;49.576;11.024;2022-11-20T00:56:55;16.00;;;7.13;;
72586;SDS011;60621;49.576;11.024;2022-11-20T00:57:57;17.58;;;7.50;;
72586;SDS011;60621;49.576;11.024;2022-11-20T00:59:04;16.58;;;7.43;;
72586;SDS011;60621;49.576;11.024;2022-11-20T01:00:06;15.75;;;7.63;;
72586;SDS011;60621;49.576;11.024;2022-11-20T01:01:18;17.90;;;7.60;;
72586;SDS011;60621;49.576;11.024;2022-11-20T01:02:21;17.92;;;7.80;;
72586;SDS011;60621;49.576;11.024;2022-11-20T01:03:22;18.90;;;7.55;;
72586;SDS011;60621;49.576;11.024;2022-11-20T01:04:27;18.05;;;7.85;;
72586;SDS011;60621;49.576;11.024;2022-11-20T01:05:28;17.02;;;7.80;;
72586;SDS011;60621;49.576;11.024;2022-11-20T01:06:31;17.02;;;7.25;;
72586;SDS011;60621;49.576;11.024;2022-11-20T01:07:34;17.45;;;7.45;;
72586;SDS011;60621;49.576;11.024;2022-11-20T01:08:35;16.30;;;7.18;;
72586;SDS011;60621;49.576;11.024;2022-11-20T01:09:37;16.10;;;7.25;;
72586;SDS011;60621;49.576;11.024;2022-11-20T01:10:39;17.77;;;8.45;;
72586;SDS011;60621;49.576;11.024;2022-11-20T01:11:41;33.45;;;15.50;;
72586;SDS011;60621;49.576;11.024;2022-11-20T01:12:44;42.28;;;19.42;;
72586;SDS011;60621;49.576;11.024;2022-11-20T01:14:07;32.25;;;14.20;;
72586;SDS011;60621;49.576;11.024;2022-11-20T01:15:11;44.83;;;19.13;;
72586;SDS011;60621;49.576;11.024;2022-11-20T01:16:14;46.25;;;18.67;;
72586;SDS011;60621;49.576;11.024;2022-11-20T01:17:15;31.63;;;14.02;;
72586;SDS011;60621;49.576;11.024;2022-11-20T01:18:17;28.08;;;11.75;;
72586;SDS011;60621;49.576;11.024;2022-11-20T01:19:20;22.75;;;10.45;;
72586;SDS011;60621;49.576;11.024;2022-11-20T01:20:23;20.42;;;8.48;;
72586;SDS011;60621;49.576;11.024;2022-11-20T01:21:32;19.83;;;8.75;;
72586;SDS011;60621;49.576;11.024;2022-11-20T01:22:38;21.55;;;8.55;;
72586;SDS011;60621;49.576;11.024;2022-11-20T01:23:41;17.42;;;7.88;;
72586;SDS011;60621;49.576;11.024;2022-11-20T01:24:44;19.95;;;8.07;;
72586;SDS011;60621;49.576;11.024;2022-11-20T01:25:45;16.05;;;7.20;;
72586;SDS011;60621;49.576;11.024;2022-11-20T01:26:48;18.63;;;7.75;;
72586;SDS011;60621;49.576;11.024;2022-11-20T01:27:50;19.60;;;8.20;;
72586;SDS011;60621;49.576;11.024;2022-11-20T01:28:53;18.67;;;8.13;;
72586;SDS011;60621;49.576;11.024;2022-11-20T01:29:55;17.98;;;7.68;;
72586;SDS011;60621;49.576;11.024;2022-11-20T01:31:01;21.25;;;8.88;;
72586;SDS011;60621;49.576;11.024;2022-11-20T01:32:13;18.42;;;8.10;;
72586;SDS011;60621;49.576;11.024;2022-11-20T01:33:14;18.38;;;7.85;;
72586;SDS011;60621;49.576;11.024;2022-11-20T01:34:17;18.55;;;7.78;;
72586;SDS011;60621;49.576;11.024;2022-11-20T01:36:21;19.85;;;8.23;;
72586;SDS011;60621;49.576;11.024;2022-11-20T01:37:24;19.15;;;8.45;;
72586;SDS011;60621;49.576;11.024;2022-11-20T01:38:25;18.08;;;7.30;;
72586;SDS011;60621;49.576;11.024;2022-11-20T01:39:27;18.58;;;8.02;;
72586;SDS011;60621;49.576;11.024;2022-11-20T01:40:29;18.90;;;8.20;;
72586;SDS011;60621;49.576;11.024;2022-11-20T01:41:30;20.45;;;8.30;;
72586;SDS011;60621;49.576;11.024;2022-11-20T01:42:55;18.02;;;7.90;;
72586;SDS011;60621;49.576;11.024;2022-11-20T01:47:01;18.20;;;8.02;;
72586;SDS011;60621;49.576;11.024;2022-11-20T01:48:05;19.40;;;8.75;;
72586;SDS011;60621;49.576;11.024;2022-11-20T01:51:27;32.80;;;15.00;;
72586;SDS011;60621;49.576;11.024;2022-11-20T01:52:39;40.17;;;18.40;;
72586;SDS011;60621;49.576;11.024;2022-11-20T01:53:43;42.35;;;19.95;;
72586;SDS011;60621;49.576;11.024;2022-11-20T01:54:53;49.97;;;23.33;;
72586;SDS011;60621;49.576;11.024;2022-11-20T01:56:21;40.88;;;18.92;;
72586;SDS011;60621;49.576;11.024;2022-11-20T01:57:24;33.17;;;15.05;;
72586;SDS011;60621;49.576;11.024;2022-11-20T01:58:31;28.88;;;13.32;;
72586;SDS011;60621;49.576;11.024;2022-11-20T01:59:35;27.55;;;11.98;;
72586;SDS011;60621;49.576;11.024;2022-11-20T02:00:42;22.52;;;9.65;;
72586;SDS011;60621;49.576;11.024;2022-11-20T02:01:44;20.65;;;9.65;;
72586;SDS011;60621;49.576;11.024;2022-11-20T02:02:47;20.08;;;9.40;;
72586;SDS011;60621;49.576;11.024;2022-11-20T02:03:52;19.00;;;8.35;;
72586;SDS011;60621;49.576;11.024;2022-11-20T02:04:55;17.45;;;7.65;;
72586;SDS011;60621;49.576;11.024;2022-11-20T02:06:07;18.63;;;8.57;;
72586;SDS011;60621;49.576;11.024;2022-11-20T02:07:15;17.90;;;7.63;;
72586;SDS011;60621;49.576;11.024;2022-11-20T02:08:18;18.02;;;7.72;;
72586;SDS011;60621;49.576;11.024;2022-11-20T02:09:21;16.65;;;7.78;;
72586;SDS011;60621;49.576;11.024;2022-11-20T02:10:23;16.83;;;7.32;;
72586;SDS011;60621;49.576;11.024;2022-11-20T02:11:25;16.63;;;6.85;;
72586;SDS011;60621;49.576;11.024;2022-11-20T02:12:26;18.77;;;7.65;;
72586;SDS011;60621;49.576;11.024;2022-11-20T02:13:46;16.88;;;7.63;;
72586;SDS011;60621;49.576;11.024;2022-11-20T02:14:49;18.45;;;8.27;;
72586;SDS011;60621;49.576;11.024;2022-11-20T02:15:50;18.65;;;8.00;;
72586;SDS011;60621;49.576;11.024;2022-11-20T02:16:52;18.77;;;8.32;;
72586;SDS011;60621;49.576;11.024;2022-11-20T02:17:56;20.13;;;8.25;;
72586;SDS011;60621;49.576;11.024;2022-11-20T02:18:59;18.20;;;7.70;;
72586;SDS011;60621;49.576;11.024;2022-11-20T02:20:02;17.92;;;7.35;;
72586;SDS011;60621;49.576;11.024;2022-11-20T02:23:38;18.65;;;7.75;;
72586;SDS011;60621;49.576;11.024;2022-11-20T02:24:21;18.58;;;7.95;;
72586;SDS011;60621;49.576;11.024;2022-11-20T02:25:23;17.83;;;8.07;;
72586;SDS011;60621;49.576;11.024;2022-11-20T02:27:28;16.30;;;7.15;;
72586;SDS011;60621;49.576;11.024;2022-11-20T02:28:30;19.63;;;8.20;;
72586;SDS011;60621;49.576;11.024;2022-11-20T02:29:34;16.00;;;7.28;;
72586;SDS011;60621;49.576;11.024;2022-11-20T02:30:39;18.83;;;7.55;;
72586;SDS011;60621;49.576;11.024;2022-11-20T02:31:41;18.23;;;7.72;;
72586;SDS011;60621;49.576;11.024;2022-11-20T02:32:44;18.33;;;8.05;;
72586;SDS011;60621;49.576;11.024;2022-11-20T02:33:46;18.58;;;8.20;;
72586;SDS011;60621;49.576;11.024;2022-11-20T02:34:47;18.85;;;8.23;;
72586;SDS011;60621;49.576;11.024;2022-11-20T02:35:49;18.10;;;7.72;;
72586;SDS011;60621;49.576;11.024;2022-11-20T02:36:50;18.50;;;8.25;;
72586;SDS011;60621;49.576;11.024;2022-11-20T02:38:55;20.13;;;8.18;;
72586;SDS011;60621;49.576;11.024;2022-11-20T02:39:57;18.95;;;8.10;;
72586;SDS011;60621;49.576;11.024;2022-11-20T02:40:59;17.20;;;7.60;;
72586;SDS011;60621;49.576;11.024;2022-11-20T02:42:00;18.98;;;7.95;;
72586;SDS011;60621;49.576;11.024;2022-11-20T02:43:02;19.42;;;8.27;;
72586;SDS011;60621;49.576;11.024;2022-11-20T02:44:04;18.90;;;8.13;;
72586;SDS011;60621;49.576;11.024;2022-11-20T02:45:06;18.58;;;8.35;;
72586;SDS011;60621;49.576;11.024;2022-11-20T02:46:08;17.30;;;7.78;;
72586;SDS011;60621;49.576;11.024;2022-11-20T02:47:10;18.35;;;8.43;;
72586;SDS011;60621;49.576;11.024;2022-11-20T02:48:11;17.20;;;7.75;;
72586;SDS011;60621;49.576;11.024;2022-11-20T02:49:13;17.77;;;7.88;;
72586;SDS011;60621;49.576;11.024;2022-11-20T02:50:14;19.50;;;8.15;;
72586;SDS011;60621;49.576;11.024;2022-11-20T02:51:16;15.90;;;7.15;;
72586;SDS011;60621;49.576;11.024;2022-11-20T02:52:17;18.65;;;7.85;;
72586;SDS011;60621;49.576;11.024;2022-11-20T02:53:19;17.55;;;7.82;;
72586;SDS011;60621;49.576;11.024;2022-11-20T02:54:20;15.90;;;7.20;;
72586;SDS011;60621;49.576;11.024;2022-11-20T02:55:22;18.70;;;8.02;;
72586;SDS011;60621;49.576;11.024;2022-11-20T02:56:23;16.88;;;7.50;;
72586;SDS011;60621;49.576;11.024;2022-11-20T02:57:25;21.17;;;10.02;;
72586;SDS011;60621;49.576;11.024;2022-11-20T02:58:27;40.10;;;18.77;;
72586;SDS011;60621;49.576;11.024;2022-11-20T02:59:29;39.55;;;18.30;;
72586;SDS011;60621;49.576;11.024;2022-11-20T03:00:30;35.00;;;15.90;;
72586;SDS011;60621;49.576;11.024;2022-11-20T03:01:33;26.27;;;11.82;;
72586;SDS011;60621;49.576;11.024;2022-11-20T03:02:34;21.20;;;9.20;;
72586;SDS011;60621;49.576;11.024;2022-11-20T03:03:36;21.48;;;9.27;;
72586;SDS011;60621;49.576;11.024;2022-11-20T03:04:38;20.02;;;8.60;;
72586;SDS011;60621;49.576;11.024;2022-11-20T03:05:39;19.00;;;8.38;;
72586;SDS011;60621;49.576;11.024;2022-11-20T03:06:41;18.50;;;7.95;;
72586;SDS011;60621;49.576;11.024;2022-11-20T03:07:43;18.48;;;8.07;;
72586;SDS011;60621;49.576;11.024;2022-11-20T03:08:45;19.42;;;7.90;;
72586;SDS011;60621;49.576;11.024;2022-11-20T03:09:47;18.75;;;7.97;;
72586;SDS011;60621;49.576;11.024;2022-11-20T03:10:48;19.73;;;8.30;;
72586;SDS011;60621;49.576;11.024;2022-11-20T03:11:49;18.88;;;8.13;;
72586;SDS011;60621;49.576;11.024;2022-11-20T03:12:55;19.25;;;8.18;;
72586;SDS011;60621;49.576;11.024;2022-11-20T03:13:57;17.75;;;7.90;;
72586;SDS011;60621;49.576;11.024;2022-11-20T03:15:05;20.80;;;9.23;;
72586;SDS011;60621;49.576;11.024;2022-11-20T03:16:08;20.08;;;8.43;;
72586;SDS011;60621;49.576;11.024;2022-11-20T03:17:11;19.83;;;8.95;;
72586;SDS011;60621;49.576;11.024;2022-11-20T03:18:13;19.73;;;8.30;;
72586;SDS011;60621;49.576;11.024;2022-11-20T03:19:15;19.02;;;8.52;;
72586;SDS011;60621;49.576;11.024;2022-11-20T03:20:16;17.98;;;8.00;;
72586;SDS011;60621;49.576;11.024;2022-11-20T03:21:18;20.23;;;9.27;;
72586;SDS011;60621;49.576;11.024;2022-11-20T03:22:19;19.42;;;8.10;;
72586;SDS011;60621;49.576;11.024;2022-11-20T03:23:21;20.48;;;8.80;;
72586;SDS011;60621;49.576;11.024;2022-11-20T03:24:22;20.33;;;8.88;;
72586;SDS011;60621;49.576;11.024;2022-11-20T03:25:24;20.13;;;8.43;;
72586;SDS011;60621;49.576;11.024;2022-11-20T03:26:26;21.13;;;9.13;;
72586;SDS011;60621;49.576;11.024;2022-11-20T03:27:31;20.02;;;8.60;;
72586;SDS011;60621;49.576;11.024;2022-11-20T03:28:34;20.60;;;8.48;;
72586;SDS011;60621;49.576;11.024;2022-11-20T03:29:36;20.48;;;8.90;;
72586;SDS011;60621;49.576;11.024;2022-11-20T03:30:37;19.58;;;8.57;;
72586;SDS011;60621;49.576;11.024;2022-11-20T03:31:39;19.30;;;8.95;;
72586;SDS011;60621;49.576;11.024;2022-11-20T03:33:43;18.95;;;8.27;;
72586;SDS011;60621;49.576;11.024;2022-11-20T03:34:45;19.08;;;8.32;;
72586;SDS011;60621;49.576;11.024;2022-11-20T03:35:46;19.55;;;8.55;;
72586;SDS011;60621;49.576;11.024;2022-11-20T03:36:48;18.98;;;8.80;;
72586;SDS011;60621;49.576;11.024;2022-11-20T03:37:49;19.45;;;8.15;;
72586;SDS011;60621;49.576;11.024;2022-11-20T03:38:52;18.42;;;8.55;;
72586;SDS011;60621;49.576;11.024;2022-11-20T03:39:54;17.73;;;8.05;;
72586;SDS011;60621;49.576;11.024;2022-11-20T03:41:02;17.20;;;7.90;;
72586;SDS011;60621;49.576;11.024;2022-11-20T03:42:05;19.92;;;8.40;;
72586;SDS011;60621;49.576;11.024;2022-11-20T03:43:27;19.50;;;8.20;;
72586;SDS011;60621;49.576;11.024;2022-11-20T03:44:29;18.48;;;8.10;;
72586;SDS011;60621;49.576;11.024;2022-11-20T03:45:30;18.85;;;8.35;;
72586;SDS011;60621;49.576;11.024;2022-11-20T03:46:32;18.48;;;8.23;;
72586;SDS011;60621;49.576;11.024;2022-11-20T03:47:34;16.95;;;7.90;;
72586;SDS011;60621;49.576;11.024;2022-11-20T03:48:35;18.30;;;7.88;;
72586;SDS011;60621;49.576;11.024;2022-11-20T03:49:37;18.13;;;8.18;;
72586;SDS011;60621;49.576;11.024;2022-11-20T03:50:39;18.38;;;8.02;;
72586;SDS011;60621;49.576;11.024;2022-11-20T03:51:40;17.70;;;7.85;;
72586;SDS011;60621;49.576;11.024;2022-11-20T03:52:42;17.15;;;7.72;;
72586;SDS011;60621;49.576;11.024;2022-11-20T03:53:44;17.88;;;8.00;;
72586;SDS011;60621;49.576;11.024;2022-11-20T03:54:47;18.63;;;7.93;;
72586;SDS011;60621;49.576;11.024;2022-11-20T03:55:51;18.52;;;7.80;;
72586;SDS011;60621;49.576;11.024;2022-11-20T03:56:53;18.17;;;7.82;;
72586;SDS011;60621;49.576;11.024;2022-11-20T03:57:54;19.48;;;8.40;;
72586;SDS011;60621;49.576;11.024;2022-11-20T03:58:56;18.55;;;7.72;;
72586;SDS011;60621;49.576;11.024;2022-11-20T03:59:58;20.67;;;9.35;;
72586;SDS011;60621;49.576;11.024;2022-11-20T04:01:04;19.67;;;8.63;;
72586;SDS011;60621;49.576;11.024;2022-11-20T04:02:07;19.83;;;8.80;;
72586;SDS011;60621;49.576;11.024;2022-11-20T04:03:08;19.67;;;8.32;;
72586;SDS011;60621;49.576;11.024;2022-11-20T04:04:10;20.90;;;8.57;;
72586;SDS011;60621;49.576;11.024;2022-11-20T04:05:11;21.85;;;8.77;;
72586;SDS011;60621;49.576;11.024;2022-11-20T04:06:23;18.83;;;8.68;;
72586;SDS011;60621;49.576;11.024;2022-11-20T04:07:27;19.27;;;8.45;;
72586;SDS011;60621;49.576;11.024;2022-11-20T04:08:29;18.40;;;8.68;;
72586;SDS011;60621;49.576;11.024;2022-11-20T04:09:31;19.52;;;8.20;;
72586;SDS011;60621;49.576;11.024;2022-11-20T04:10:33;18.50;;;8.13;;
72586;SDS011;60621;49.576;11.024;2022-11-20T04:11:35;18.63;;;8.18;;
72586;SDS011;60621;49.576;11.024;2022-11-20T04:12:40;21.42;;;8.77;;
72586;SDS011;60621;49.576;11.024;2022-11-20T04:13:42;19.63;;;8.95;;
72586;SDS011;60621;49.576;11.024;2022-11-20T04:14:47;18.83;;;8.93;;
72586;SDS011;60621;49.576;11.024;2022-11-20T04:15:48;20.00;;;8.80;;
72586;SDS011;60621;49.576;11.024;2022-11-20T04:16:50;20.55;;;8.85;;
72586;SDS011;60621;49.576;11.024;2022-11-20T04:17:52;19.10;;;8.63;;
72586;SDS011;60621;49.576;11.024;2022-11-20T04:18:56;20.42;;;8.85;;
72586;SDS011;60621;49.576;11.024;2022-11-20T04:19:58;19.00;;;8.23;;
72586;SDS011;60621;49.576;11.024;2022-11-20T04:21:00;23.15;;;9.73;;
72586;SDS011;60621;49.576;11.024;2022-11-20T04:22:01;21.33;;;9.68;;
72586;SDS011;60621;49.576;11.024;2022-11-20T04:23:03;21.38;;;8.93;;
72586;SDS011;60621;49.576;11.024;2022-11-20T04:24:05;20.30;;;8.63;;
72586;SDS011;60621;49.576;11.024;2022-11-20T04:25:07;20.55;;;8.35;;
72586;SDS011;60621;49.576;11.024;2022-11-20T04:26:10;19.02;;;8.57;;
72586;SDS011;60621;49.576;11.024;2022-11-20T04:27:12;19.92;;;8.63;;
72586;SDS011;60621;49.576;11.024;2022-11-20T04:28:14;19.80;;;8.05;;
72586;SDS011;60621;49.576;11.024;2022-11-20T04:29:16;18.77;;;8.25;;
72586;SDS011;60621;49.576;11.024;2022-11-20T04:30:17;18.98;;;8.40;;
72586;SDS011;60621;49.576;11.024;2022-11-20T04:31:23;21.00;;;8.43;;
72586;SDS011;60621;49.576;11.024;2022-11-20T04:32:26;19.52;;;8.35;;
72586;SDS011;60621;49.576;11.024;2022-11-20T04:33:28;19.70;;;8.88;;
72586;SDS011;60621;49.576;11.024;2022-11-20T04:34:34;21.52;;;8.82;;
72586;SDS011;60621;49.576;11.024;2022-11-20T04:35:36;18.83;;;8.15;;
72586;SDS011;60621;49.576;11.024;2022-11-20T04:36:38;18.38;;;8.13;;
72586;SDS011;60621;49.576;11.024;2022-11-20T04:37:39;19.73;;;8.77;;
72586;SDS011;60621;49.576;11.024;2022-11-20T04:38:41;20.73;;;8.85;;
72586;SDS011;60621;49.576;11.024;2022-11-20T04:39:43;18.27;;;8.05;;
72586;SDS011;60621;49.576;11.024;2022-11-20T04:40:45;18.33;;;8.27;;
72586;SDS011;60621;49.576;11.024;2022-11-20T04:41:46;17.23;;;7.90;;
72586;SDS011;60621;49.576;11.024;2022-11-20T04:42:48;19.23;;;8.10;;
72586;SDS011;60621;49.576;11.024;2022-11-20T04:43:51;21.85;;;9.68;;
72586;SDS011;60621;49.576;11.024;2022-11-20T04:44:54;21.23;;;8.35;;
72586;SDS011;60621;49.576;11.024;2022-11-20T04:45:56;19.33;;;7.95;;
72586;SDS011;60621;49.576;11.024;2022-11-20T04:46:59;19.05;;;8.50;;
72586;SDS011;60621;49.576;11.024;2022-11-20T04:48:00;18.52;;;8.35;;
72586;SDS011;60621;49.576;11.024;2022-11-20T04:49:02;18.98;;;8.20;;
72586;SDS011;60621;49.576;11.024;2022-11-20T04:50:04;18.15;;;8.00;;
72586;SDS011;60621;49.576;11.024;2022-11-20T04:51:06;18.17;;;7.93;;
72586;SDS011;60621;49.576;11.024;2022-11-20T04:52:07;21.60;;;8.65;;
72586;SDS011;60621;49.576;11.024;2022-11-20T04:53:09;20.60;;;9.02;;
72586;SDS011;60621;49.576;11.024;2022-11-20T04:54:11;20.77;;;9.45;;
72586;SDS011;60621;49.576;11.024;2022-11-20T04:55:12;20.45;;;9.35;;
72586;SDS011;60621;49.576;11.024;2022-11-20T04:56:14;19.45;;;8.20;;
72586;SDS011;60621;49.576;11.024;2022-11-20T04:57:16;18.00;;;7.80;;
72586;SDS011;60621;49.576;11.024;2022-11-20T04:58:18;18.52;;;7.88;;
72586;SDS011;60621;49.576;11.024;2022-11-20T04:59:19;19.48;;;8.00;;
72586;SDS011;60621;49.576;11.024;2022-11-20T05:00:21;20.00;;;8.77;;
72586;SDS011;60621;49.576;11.024;2022-11-20T05:01:23;18.40;;;8.30;;
72586;SDS011;60621;49.576;11.024;2022-11-20T05:02:25;16.73;;;7.97;;
72586;SDS011;60621;49.576;11.024;2022-11-20T05:03:27;19.60;;;8.38;;
72586;SDS011;60621;49.576;11.024;2022-11-20T05:04:29;21.23;;;8.68;;
72586;SDS011;60621;49.576;11.024;2022-11-20T05:05:30;17.42;;;7.55;;
72586;SDS011;60621;49.576;11.024;2022-11-20T05:06:32;20.77;;;8.13;;
72586;SDS011;60621;49.576;11.024;2022-11-20T05:07:33;18.40;;;7.82;;
72586;SDS011;60621;49.576;11.024;2022-11-20T05:08:35;17.75;;;8.25;;
72586;SDS011;60621;49.576;11.024;2022-11-20T05:09:37;18.15;;;7.85;;
72586;SDS011;60621;49.576;11.024;2022-11-20T05:10:38;20.45;;;8.40;;
72586;SDS011;60621;49.576;11.024;2022-11-20T05:11:40;18.00;;;7.82;;
72586;SDS011;60621;49.576;11.024;2022-11-20T05:12:41;16.67;;;7.65;;
72586;SDS011;60621;49.576;11.024;2022-11-20T05:13:43;20.42;;;8.63;;
72586;SDS011;60621;49.576;11.024;2022-11-20T05:14:45;19.08;;;8.60;;
72586;SDS011;60621;49.576;11.024;2022-11-20T05:15:46;19.90;;;8.98;;
72586;SDS011;60621;49.576;11.024;2022-11-20T05:16:48;21.20;;;8.73;;
72586;SDS011;60621;49.576;11.024;2022-11-20T05:17:50;19.52;;;8.30;;
72586;SDS011;60621;49.576;11.024;2022-11-20T05:18:54;19.42;;;8.18;;
72586;SDS011;60621;49.576;11.024;2022-11-20T05:19:56;20.55;;;8.73;;
72586;SDS011;60621;49.576;11.024;2022-11-20T05:20:57;19.80;;;8.65;;
72586;SDS011;60621;49.576;11.024;2022-11-20T05:21:59;18.77;;;8.45;;
72586;SDS011;60621;49.576;11.024;2022-11-20T05:23:01;20.35;;;8.50;;
72586;SDS011;60621;49.576;11.024;2022-11-20T05:24:03;18.05;;;7.93;;
72586;SDS011;60621;49.576;11.024;2022-11-20T05:25:05;18.60;;;8.20;;
72586;SDS011;60621;49.576;11.024;2022-11-20T05:26:07;19.33;;;8.23;;
72586;SDS011;60621;49.576;11.024;2022-11-20T05:27:13;19.00;;;8.13;;
72586;SDS011;60621;49.576;11.024;2022-11-20T05:28:15;19.33;;;7.95;;
72586;SDS011;60621;49.576;11.024;2022-11-20T05:29:16;18.63;;;8.50;;
72586;SDS011;60621;49.576;11.024;2022-11-20T05:30:18;18.55;;;7.97;;
72586;SDS011;60621;49.576;11.024;2022-11-20T05:31:20;17.38;;;7.78;;
72586;SDS011;60621;49.576;11.024;2022-11-20T05:32:28;17.73;;;7.93;;
72586;SDS011;60621;49.576;11.024;2022-11-20T05:33:30;18.85;;;7.55;;
72586;SDS011;60621;49.576;11.024;2022-11-20T05:34:31;18.05;;;7.63;;
72586;SDS011;60621;49.576;11.024;2022-11-20T05:35:33;18.15;;;7.53;;
72586;SDS011;60621;49.576;11.024;2022-11-20T05:36:34;18.70;;;7.95;;
72586;SDS011;60621;49.576;11.024;2022-11-20T05:37:36;19.00;;;8.13;;
72586;SDS011;60621;49.576;11.024;2022-11-20T05:38:38;20.30;;;8.27;;
72586;SDS011;60621;49.576;11.024;2022-11-20T05:39:40;17.67;;;7.93;;
72586;SDS011;60621;49.576;11.024;2022-11-20T05:40:41;20.38;;;8.38;;
72586;SDS011;60621;49.576;11.024;2022-11-20T05:41:42;18.25;;;8.23;;
72586;SDS011;60621;49.576;11.024;2022-11-20T05:42:44;17.83;;;7.82;;
72586;SDS011;60621;49.576;11.024;2022-11-20T05:43:46;18.67;;;8.20;;
72586;SDS011;60621;49.576;11.024;2022-11-20T05:45:53;18.33;;;7.50;;
72586;SDS011;60621;49.576;11.024;2022-11-20T05:46:55;18.65;;;8.13;;
72586;SDS011;60621;49.576;11.024;2022-11-20T05:47:57;20.40;;;8.63;;
72586;SDS011;60621;49.576;11.024;2022-11-20T05:49:00;20.23;;;8.30;;
72586;SDS011;60621;49.576;11.024;2022-11-20T05:50:02;18.73;;;8.30;;
72586;SDS011;60621;49.576;11.024;2022-11-20T05:51:04;20.55;;;8.32;;
72586;SDS011;60621;49.576;11.024;2022-11-20T05:52:08;18.35;;;8.25;;
72586;SDS011;60621;49.576;11.024;2022-11-20T05:53:09;19.55;;;8.45;;
72586;SDS011;60621;49.576;11.024;2022-11-20T05:54:11;19.33;;;7.93;;
72586;SDS011;60621;49.576;11.024;2022-11-20T05:55:12;20.08;;;8.00;;
72586;SDS011;60621;49.576;11.024;2022-11-20T05:56:15;18.52;;;7.57;;
72586;SDS011;60621;49.576;11.024;2022-11-20T05:57:18;20.55;;;8.40;;
72586;SDS011;60621;49.576;11.024;2022-11-20T05:58:20;18.92;;;8.07;;
72586;SDS011;60621;49.576;11.024;2022-11-20T05:59:21;18.30;;;7.57;;
72586;SDS011;60621;49.576;11.024;2022-11-20T06:00:23;19.27;;;8.13;;
72586;SDS011;60621;49.576;11.024;2022-11-20T06:01:25;17.95;;;7.85;;
72586;SDS011;60621;49.576;11.024;2022-11-20T06:02:27;19.42;;;7.93;;
72586;SDS011;60621;49.576;11.024;2022-11-20T06:03:28;20.42;;;8.23;;
72586;SDS011;60621;49.576;11.024;2022-11-20T06:04:30;16.88;;;7.43;;
72586;SDS011;60621;49.576;11.024;2022-11-20T06:05:33;21.42;;;8.27;;
72586;SDS011;60621;49.576;11.024;2022-11-20T06:06:34;21.73;;;8.65;;
72586;SDS011;60621;49.576;11.024;2022-11-20T06:07:36;19.13;;;8.05;;
72586;SDS011;60621;49.576;11.024;2022-11-20T06:08:38;20.70;;;8.43;;
72586;SDS011;60621;49.576;11.024;2022-11-20T06:09:39;18.98;;;8.05;;
72586;SDS011;60621;49.576;11.024;2022-11-20T06:10:40;19.30;;;8.15;;
72586;SDS011;60621;49.576;11.024;2022-11-20T06:11:42;19.52;;;8.13;;
72586;SDS011;60621;49.576;11.024;2022-11-20T06:12:43;18.58;;;8.40;;
72586;SDS011;60621;49.576;11.024;2022-11-20T06:13:45;20.80;;;8.75;;
72586;SDS011;60621;49.576;11.024;2022-11-20T06:14:47;19.00;;;8.40;;
72586;SDS011;60621;49.576;11.024;2022-11-20T06:15:49;19.00;;;8.40;;
72586;SDS011;60621;49.576;11.024;2022-11-20T06:16:54;22.27;;;8.73;;
72586;SDS011;60621;49.576;11.024;2022-11-20T06:17:56;20.15;;;8.15;;
72586;SDS011;60621;49.576;11.024;2022-11-20T06:18:57;19.15;;;7.95;;
72586;SDS011;60621;49.576;11.024;2022-11-20T06:19:59;21.48;;;8.60;;